createdAt,value
2023-04-18T00:02:19.022Z,100032.36
2023-04-18T00:04:45.987Z,100038.02
2023-04-18T00:07:14.969Z,100041.37
2023-04-18T00:09:42.029Z,100041.58
2023-04-18T00:12:08.729Z,100039.13
2023-04-18T00:14:35.790Z,100038.27
2023-04-18T00:17:02.354Z,100038.61
2023-04-18T00:19:28.921Z,100040.55
2023-04-18T00:21:55.462Z,100043.02
2023-04-18T00:24:21.966Z,100041.60
2023-04-18T00:26:48.471Z,100040.23
2023-04-18T00:29:14.940Z,100040.75
2023-04-18T00:31:41.407Z,100047.58
2023-04-18T00:34:07.879Z,100048.61
2023-04-18T00:36:34.375Z,100045.77
2023-04-18T00:39:00.849Z,100048.95
2023-04-18T00:41:27.484Z,100046.86
2023-04-18T00:43:54.427Z,100046.86
2023-04-18T00:46:20.908Z,100044.59
2023-04-18T00:48:48.417Z,100047.25
2023-04-18T00:51:15.486Z,100049.04
2023-04-18T00:53:44.259Z,100047.52
2023-04-18T00:56:11.493Z,100047.38
2023-04-18T00:58:38.151Z,100042.16
2023-04-18T01:01:04.735Z,100042.91
2023-04-18T01:03:31.338Z,100041.04
2023-04-18T01:05:58.015Z,100040.55
2023-04-18T01:08:24.664Z,100042.84
2023-04-18T01:10:51.128Z,100039.16
2023-04-18T01:13:19.966Z,100039.34
2023-04-18T01:15:48.486Z,100037.42
2023-04-18T01:18:16.111Z,100030.94
2023-04-18T01:20:47.811Z,100030.45
2023-04-18T01:23:15.206Z,100027.83
2023-04-18T01:25:42.205Z,100027.30
2023-04-18T01:28:10.457Z,100028.55
2023-04-18T01:30:36.988Z,100028.52
2023-04-18T01:33:04.750Z,100028.52
2023-04-18T01:35:32.530Z,100026.45
2023-04-18T01:38:00.008Z,100027.31
2023-04-18T01:40:26.751Z,100026.62
2023-04-18T01:42:53.295Z,100026.23
2023-04-18T01:45:20.379Z,100028.20
2023-04-18T01:47:47.201Z,100032.07
2023-04-18T01:50:14.146Z,100027.88
2023-04-18T01:52:40.667Z,100027.20
2023-04-18T01:55:07.577Z,100030.58
2023-04-18T01:57:37.510Z,100029.73
2023-04-18T02:00:06.795Z,100029.44
2023-04-18T02:02:33.458Z,100031.92
2023-04-18T02:05:00.044Z,100034.38
2023-04-18T02:07:26.785Z,100039.17
2023-04-18T02:09:53.293Z,100035.66
2023-04-18T02:12:19.812Z,100038.64
2023-04-18T02:14:50.512Z,100037.57
2023-04-18T02:17:17.058Z,100036.16
2023-04-18T02:19:43.536Z,100037.91
2023-04-18T02:22:10.030Z,100038.27
2023-04-18T02:24:36.480Z,100035.05
2023-04-18T02:27:03.041Z,100040.32
2023-04-18T02:29:29.536Z,100045.06
2023-04-18T02:31:56.089Z,100048.92
2023-04-18T02:34:22.638Z,100049.45
2023-04-18T02:36:49.437Z,100048.59
2023-04-18T02:39:15.923Z,100049.83
2023-04-18T02:41:42.415Z,100045.13
2023-04-18T02:44:09.101Z,100047.15
2023-04-18T02:46:35.618Z,100046.15
2023-04-18T02:49:02.184Z,100045.85
2023-04-18T02:51:28.633Z,100048.88
2023-04-18T02:53:55.096Z,100050.30
2023-04-18T02:56:22.232Z,100049.67
2023-04-18T02:58:48.927Z,100049.75
2023-04-18T03:01:17.409Z,100049.64
2023-04-18T03:03:44.297Z,100050.16
2023-04-18T03:06:10.775Z,100050.17
2023-04-18T03:08:37.291Z,100054.03
2023-04-18T03:11:03.854Z,100054.05
2023-04-18T03:13:30.440Z,100055.48
2023-04-18T03:15:56.969Z,100057.44
2023-04-18T03:18:23.647Z,100057.84
2023-04-18T03:20:50.106Z,100059.80
2023-04-18T03:23:16.592Z,100056.81
2023-04-18T03:25:43.089Z,100058.20
2023-04-18T03:28:09.593Z,100059.27
2023-04-18T03:30:36.092Z,100058.54
2023-04-18T03:33:02.826Z,100060.61
2023-04-18T03:35:29.513Z,100058.65
2023-04-18T03:37:56.042Z,100058.83
2023-04-18T03:40:22.532Z,100059.52
2023-04-18T03:42:48.996Z,100060.02
2023-04-18T03:45:15.561Z,100057.28
2023-04-18T03:47:42.133Z,100059.96
2023-04-18T03:50:09.084Z,100061.23
2023-04-18T03:52:35.566Z,100064.91
2023-04-18T03:55:02.054Z,100062.08
2023-04-18T03:57:28.531Z,100064.75
2023-04-18T03:59:54.986Z,100067.79
2023-04-18T04:02:21.622Z,100068.70
2023-04-18T04:04:48.314Z,100076.48
2023-04-18T04:07:14.869Z,100076.52
2023-04-18T04:09:41.399Z,100080.05
2023-04-18T04:12:07.918Z,100082.84
2023-04-18T04:14:34.416Z,100085.44
2023-04-18T04:17:00.978Z,100086.84
2023-04-18T04:19:27.471Z,100089.29
2023-04-18T04:21:53.970Z,100092.23
2023-04-18T04:24:20.513Z,100095.58
2023-04-18T04:26:47.017Z,100096.41
2023-04-18T04:29:13.499Z,100103.08
2023-04-18T04:31:40.003Z,100103.20
2023-04-18T04:34:06.470Z,100100.02
2023-04-18T04:36:32.973Z,100098.61
2023-04-18T04:38:59.435Z,100102.83
2023-04-18T04:41:25.979Z,100101.62
2023-04-18T04:43:52.455Z,100107.48
2023-04-18T04:46:18.932Z,100108.75
2023-04-18T04:48:45.792Z,100111.44
2023-04-18T04:51:12.276Z,100113.21
2023-04-18T04:53:38.793Z,100111.64
2023-04-18T04:56:05.491Z,100113.91
2023-04-18T04:58:31.989Z,100116.73
2023-04-18T05:00:58.486Z,100117.61
2023-04-18T05:03:25.124Z,100117.60
2023-04-18T05:05:51.764Z,100125.98
2023-04-18T05:08:18.217Z,100129.09
2023-04-18T05:10:44.678Z,100128.86
2023-04-18T05:13:11.533Z,100124.30
2023-04-18T05:15:38.054Z,100125.53
2023-04-18T05:18:04.688Z,100125.23
2023-04-18T05:20:31.252Z,100130.17
2023-04-18T05:22:57.713Z,100130.51
2023-04-18T05:25:24.503Z,100131.52
2023-04-18T05:27:50.997Z,100133.58
2023-04-18T05:30:17.508Z,100135.45
2023-04-18T05:32:44.044Z,100133.67
2023-04-18T05:35:10.561Z,100133.48
2023-04-18T05:37:37.074Z,100135.04
2023-04-18T05:40:05.246Z,100137.45
2023-04-18T05:42:31.735Z,100139.83
2023-04-18T05:44:58.198Z,100133.02
2023-04-18T05:47:24.766Z,100136.23
2023-04-18T05:49:51.237Z,100138.45
2023-04-18T05:52:17.780Z,100138.40
2023-04-18T05:54:44.237Z,100136.73
2023-04-18T05:57:10.730Z,100138.55
2023-04-18T05:59:37.391Z,100135.27
2023-04-18T06:02:03.900Z,100136.39
2023-04-18T06:04:30.560Z,100141.17
2023-04-18T06:06:57.345Z,100143.52
2023-04-18T06:09:23.888Z,100142.95
2023-04-18T06:11:50.334Z,100143.66
2023-04-18T06:14:16.821Z,100144.89
2023-04-18T06:16:43.455Z,100143.40
2023-04-18T06:19:10.064Z,100147.58
2023-04-18T06:21:36.529Z,100146.85
2023-04-18T06:24:03.038Z,100148.80
2023-04-18T06:26:29.610Z,100149.98
2023-04-18T06:28:56.092Z,100149.02
2023-04-18T06:31:22.624Z,100149.59
2023-04-18T06:33:49.176Z,100151.38
2023-04-18T06:36:15.639Z,100152.65
2023-04-18T06:38:42.149Z,100155.08
2023-04-18T06:41:08.634Z,100153.98
2023-04-18T06:43:35.094Z,100155.91
2023-04-18T06:46:03.122Z,100154.64
2023-04-18T06:48:29.598Z,100155.77
2023-04-18T06:50:56.107Z,100154.81
2023-04-18T06:53:22.789Z,100154.58
2023-04-18T06:55:49.488Z,100156.20
2023-04-18T06:58:16.944Z,100155.01
2023-04-18T07:00:43.599Z,100159.11
2023-04-18T07:03:11.444Z,100159.92
2023-04-18T07:05:40.728Z,100160.89
2023-04-18T07:08:07.861Z,100167.37
2023-04-18T07:10:34.350Z,100166.63
2023-04-18T07:13:00.789Z,100165.29
2023-04-18T07:15:27.319Z,100163.70
2023-04-18T07:17:53.842Z,100167.02
2023-04-18T07:20:20.402Z,100168.23
2023-04-18T07:22:46.911Z,100172.30
2023-04-18T07:25:13.454Z,100175.30
2023-04-18T07:27:39.961Z,100175.30
2023-04-18T07:30:07.153Z,100176.55
2023-04-18T07:32:33.674Z,100181.61
2023-04-18T07:35:00.214Z,100182.01
2023-04-18T07:37:26.810Z,100183.61
2023-04-18T07:39:53.292Z,100185.73
2023-04-18T07:42:19.834Z,100187.12
2023-04-18T07:44:46.283Z,100187.43
2023-04-18T07:47:12.800Z,100193.45
2023-04-18T07:49:39.298Z,100194.14
2023-04-18T07:52:05.859Z,100195.96
2023-04-18T07:54:32.396Z,100196.70
2023-04-18T07:56:59.576Z,100196.66
2023-04-18T07:59:26.048Z,100199.77
2023-04-18T08:01:52.653Z,100195.95
2023-04-18T08:04:19.340Z,100201.27
2023-04-18T08:06:45.974Z,100195.89
2023-04-18T08:09:12.584Z,100195.30
2023-04-18T08:11:39.276Z,100197.64
2023-04-18T08:14:05.778Z,100195.22
2023-04-18T08:16:32.336Z,100196.51
2023-04-18T08:18:58.846Z,100192.43
2023-04-18T08:21:25.388Z,100193.40
2023-04-18T08:23:51.854Z,100193.91
2023-04-18T08:26:18.326Z,100194.50
2023-04-18T08:28:46.350Z,100198.46
2023-04-18T08:31:14.178Z,100202.98
2023-04-18T08:33:41.608Z,100199.45
2023-04-18T08:36:08.507Z,100202.29
2023-04-18T08:38:35.207Z,100207.11
2023-04-18T08:41:01.720Z,100204.90
2023-04-18T08:43:28.185Z,100203.40
2023-04-18T08:45:59.105Z,100200.80
2023-04-18T08:48:25.669Z,100197.63
2023-04-18T08:50:56.925Z,100199.92
2023-04-18T08:53:23.482Z,100198.09
2023-04-18T08:55:54.700Z,100200.30
2023-04-18T08:58:21.340Z,100195.60
2023-04-18T09:00:51.735Z,100196.34
2023-04-18T09:03:36.016Z,100202.68
2023-04-18T09:06:13.188Z,100203.11
2023-04-18T09:08:43.793Z,100198.66
2023-04-18T09:11:27.604Z,100200.20
2023-04-18T09:13:55.280Z,100199.07
2023-04-18T09:16:22.677Z,100194.85
2023-04-18T09:19:09.582Z,100195.56
2023-04-18T09:21:39.121Z,100198.73
2023-04-18T09:24:25.861Z,100193.59
2023-04-18T09:26:53.527Z,100195.95
2023-04-18T09:29:20.395Z,100194.09
2023-04-18T09:32:01.617Z,100193.30
2023-04-18T09:34:29.241Z,100192.06
2023-04-18T09:37:07.053Z,100191.44
2023-04-18T09:39:33.656Z,100192.41
2023-04-18T09:42:00.908Z,100193.21
2023-04-18T09:44:27.520Z,100191.98
2023-04-18T09:46:53.998Z,100194.61
2023-04-18T09:49:20.524Z,100193.95
2023-04-18T09:51:50.506Z,100199.17
2023-04-18T09:54:17.911Z,100197.05
2023-04-18T09:56:45.772Z,100196.04
2023-04-18T09:59:14.633Z,100191.54
2023-04-18T10:01:41.699Z,100190.33
2023-04-18T10:04:10.045Z,100185.01
2023-04-18T10:06:36.793Z,100184.10
2023-04-18T10:09:03.934Z,100188.19
2023-04-18T10:11:31.610Z,100188.06
2023-04-18T10:14:03.310Z,100189.64
2023-04-18T10:16:31.831Z,100190.98
2023-04-18T10:19:26.319Z,100191.64
2023-04-18T10:21:57.654Z,100191.87
2023-04-18T10:24:42.864Z,100186.58
2023-04-18T10:27:09.287Z,100188.77
2023-04-18T10:29:54.391Z,100192.12
2023-04-18T10:32:23.879Z,100190.14
2023-04-18T10:34:50.487Z,100194.31
2023-04-18T10:37:16.957Z,100195.73
2023-04-18T10:39:55.341Z,100195.27
2023-04-18T10:42:47.976Z,100194.04
2023-04-18T10:45:24.698Z,100195.61
2023-04-18T10:48:11.389Z,100194.14
2023-04-18T10:51:17.095Z,100193.48
2023-04-18T10:53:56.220Z,100191.77
2023-04-18T10:56:22.755Z,100192.96
2023-04-18T10:58:53.248Z,100192.16
2023-04-18T11:01:28.579Z,100182.29
2023-04-18T11:03:57.167Z,100177.27
2023-04-18T11:06:24.186Z,100178.94
2023-04-18T11:08:51.046Z,100172.31
2023-04-18T11:11:17.522Z,100168.64
2023-04-18T11:13:55.088Z,100172.19
2023-04-18T11:16:29.540Z,100172.46
2023-04-18T11:18:56.296Z,100175.20
2023-04-18T11:21:29.161Z,100177.52
2023-04-18T11:23:57.492Z,100183.97
2023-04-18T11:26:27.870Z,100186.16
2023-04-18T11:28:58.249Z,100184.90
2023-04-18T11:31:25.220Z,100184.30
2023-04-18T11:33:52.390Z,100183.35
2023-04-18T11:36:18.913Z,100183.85
2023-04-18T11:38:45.484Z,100183.61
2023-04-18T11:41:13.074Z,100184.89
2023-04-18T11:43:43.103Z,100181.02
2023-04-18T11:46:09.671Z,100180.29
2023-04-18T11:48:41.460Z,100177.65
2023-04-18T11:51:28.661Z,100174.09
2023-04-18T11:53:55.156Z,100172.71
2023-04-18T11:56:21.639Z,100175.30
2023-04-18T11:58:48.166Z,100174.68
2023-04-18T12:01:18.291Z,100177.70
2023-04-18T12:03:59.275Z,100177.86
2023-04-18T12:06:25.901Z,100183.84
2023-04-18T12:08:59.064Z,100178.14
2023-04-18T12:11:25.577Z,100176.66
2023-04-18T12:13:56.466Z,100172.71
2023-04-18T12:16:26.665Z,100177.31
2023-04-18T12:18:59.278Z,100178.33
2023-04-18T12:21:25.793Z,100175.04
2023-04-18T12:23:52.316Z,100176.77
2023-04-18T12:26:18.748Z,100179.52
2023-04-18T12:28:46.080Z,100175.13
2023-04-18T12:31:12.588Z,100178.91
2023-04-18T12:33:39.052Z,100183.66
2023-04-18T12:36:06.100Z,100180.75
2023-04-18T12:38:32.576Z,100186.33
2023-04-18T12:40:59.128Z,100181.44
2023-04-18T12:43:25.623Z,100176.33
2023-04-18T12:45:52.231Z,100183.14
2023-04-18T12:48:18.704Z,100182.42
2023-04-18T12:50:45.238Z,100185.87
2023-04-18T12:53:11.694Z,100185.86
2023-04-18T12:55:38.273Z,100180.30
2023-04-18T12:58:04.700Z,100178.02
2023-04-18T13:00:32.034Z,100179.71
2023-04-18T13:02:58.917Z,100179.60
2023-04-18T13:05:31.725Z,100177.59
2023-04-18T13:08:15.294Z,100175.15
2023-04-18T13:10:44.473Z,100182.13
2023-04-18T13:13:11.077Z,100183.06
2023-04-18T13:15:38.007Z,100184.05
2023-04-18T13:18:04.941Z,100184.41
2023-04-18T13:20:33.338Z,100175.83
2023-04-18T13:22:59.902Z,100180.55
2023-04-18T13:25:26.373Z,100187.62
2023-04-18T13:27:52.846Z,100189.84
2023-04-18T13:30:19.626Z,100187.86
2023-04-18T13:32:46.183Z,100184.20
2023-04-18T13:35:12.724Z,100192.04
2023-04-18T13:37:39.575Z,100187.13
2023-04-18T13:40:06.594Z,100185.88
2023-04-18T13:42:37.351Z,100182.02
2023-04-18T13:45:04.287Z,100182.63
2023-04-18T13:47:30.847Z,100182.96
2023-04-18T13:49:57.365Z,100180.17
2023-04-18T13:52:23.920Z,100181.05
2023-04-18T13:54:50.447Z,100182.36
2023-04-18T13:57:16.949Z,100183.32
2023-04-18T13:59:43.440Z,100182.58
2023-04-18T14:02:10.154Z,100185.65
2023-04-18T14:04:37.499Z,100187.45
2023-04-18T14:07:04.259Z,100185.90
2023-04-18T14:09:30.743Z,100184.18
2023-04-18T14:11:57.236Z,100187.80
2023-04-18T14:14:23.890Z,100186.23
2023-04-18T14:16:50.392Z,100183.48
2023-04-18T14:19:16.890Z,100175.84
2023-04-18T14:21:43.618Z,100177.58
2023-04-18T14:24:10.135Z,100177.59
2023-04-18T14:26:36.910Z,100178.89
2023-04-18T14:29:03.441Z,100174.28
2023-04-18T14:31:30.107Z,100174.45
2023-04-18T14:33:56.694Z,100169.57
2023-04-18T14:36:23.201Z,100168.11
2023-04-18T14:38:49.717Z,100172.11
2023-04-18T14:41:16.536Z,100172.03
2023-04-18T14:43:43.094Z,100170.67
2023-04-18T14:46:13.679Z,100172.31
2023-04-18T14:48:40.183Z,100181.89
2023-04-18T14:51:06.659Z,100180.41
2023-04-18T14:53:33.810Z,100183.14
2023-04-18T14:56:00.275Z,100181.28
2023-04-18T14:58:26.772Z,100183.35
2023-04-18T15:00:53.266Z,100182.64
2023-04-18T15:03:19.892Z,100185.56
2023-04-18T15:05:46.481Z,100185.73
2023-04-18T15:08:13.388Z,100183.52
2023-04-18T15:10:40.517Z,100184.96
2023-04-18T15:13:06.974Z,100181.23
2023-04-18T15:15:33.470Z,100181.58
2023-04-18T15:17:59.986Z,100184.41
2023-04-18T15:20:26.780Z,100183.32
2023-04-18T15:22:53.281Z,100183.05
2023-04-18T15:25:19.778Z,100183.06
2023-04-18T15:27:46.268Z,100182.88
2023-04-18T15:30:13.715Z,100184.15
2023-04-18T15:32:40.254Z,100185.92
2023-04-18T15:35:07.150Z,100186.44
2023-04-18T15:37:33.635Z,100183.27
2023-04-18T15:40:00.473Z,100185.44
2023-04-18T15:42:26.974Z,100184.54
2023-04-18T15:44:53.789Z,100189.05
2023-04-18T15:47:20.297Z,100189.10
2023-04-18T15:49:47.233Z,100186.67
2023-04-18T15:52:13.716Z,100188.56
2023-04-18T15:54:40.857Z,100186.01
2023-04-18T15:57:07.419Z,100188.35
2023-04-18T15:59:33.879Z,100191.04
2023-04-18T16:02:00.613Z,100188.79
2023-04-18T16:04:27.329Z,100192.53
2023-04-18T16:06:54.482Z,100190.61
2023-04-18T16:09:20.932Z,100190.45
2023-04-18T16:11:47.414Z,100192.71
2023-04-18T16:14:14.419Z,100200.56
2023-04-18T16:16:41.297Z,100200.81
2023-04-18T16:19:07.764Z,100202.17
2023-04-18T16:21:34.244Z,100201.98
2023-04-18T16:24:00.880Z,100205.79
2023-04-18T16:26:27.392Z,100204.75
2023-04-18T16:28:53.960Z,100204.44
2023-04-18T16:31:20.531Z,100206.13
2023-04-18T16:33:47.160Z,100208.98
2023-04-18T16:36:13.734Z,100209.65
2023-04-18T16:38:40.217Z,100214.83
2023-04-18T16:41:06.677Z,100216.29
2023-04-18T16:43:33.191Z,100214.62
2023-04-18T16:45:59.923Z,100216.84
2023-04-18T16:48:26.623Z,100216.42
2023-04-18T16:50:53.114Z,100215.30
2023-04-18T16:53:19.582Z,100218.95
2023-04-18T16:55:46.060Z,100219.52
2023-04-18T16:58:12.635Z,100221.38
2023-04-18T17:00:39.201Z,100224.80
2023-04-18T17:03:05.731Z,100227.15
2023-04-18T17:05:32.797Z,100224.23
2023-04-18T17:08:00.050Z,100224.45
2023-04-18T17:10:28.595Z,100224.63
2023-04-18T17:12:55.167Z,100225.84
2023-04-18T17:15:21.931Z,100222.27
2023-04-18T17:17:48.447Z,100223.34
2023-04-18T17:20:15.308Z,100221.61
2023-04-18T17:22:41.827Z,100221.77
2023-04-18T17:25:08.664Z,100221.26
2023-04-18T17:27:35.156Z,100220.22
2023-04-18T17:30:01.821Z,100223.48
2023-04-18T17:32:28.323Z,100225.11
2023-04-18T17:34:54.814Z,100223.73
2023-04-18T17:37:21.300Z,100226.27
2023-04-18T17:39:48.618Z,100227.75
2023-04-18T17:42:15.257Z,100231.66
2023-04-18T17:44:41.688Z,100230.79
2023-04-18T17:47:08.163Z,100233.85
2023-04-18T17:49:34.658Z,100233.70
2023-04-18T17:52:01.500Z,100240.21
2023-04-18T17:54:27.964Z,100243.23
2023-04-18T17:56:54.522Z,100243.79
2023-04-18T17:59:21.012Z,100246.52
2023-04-18T18:01:48.949Z,100247.27
2023-04-18T18:04:15.804Z,100249.95
2023-04-18T18:06:42.380Z,100252.77
2023-04-18T18:09:08.931Z,100253.33
2023-04-18T18:11:35.629Z,100255.80
2023-04-18T18:14:02.204Z,100253.22
2023-04-18T18:16:31.094Z,100257.06
2023-04-18T18:18:58.577Z,100257.40
2023-04-18T18:21:25.140Z,100258.42
2023-04-18T18:23:51.613Z,100259.77
2023-04-18T18:26:18.211Z,100262.35
2023-04-18T18:28:44.716Z,100263.00
2023-04-18T18:31:11.257Z,100266.80
2023-04-18T18:33:37.753Z,100263.73
2023-04-18T18:36:04.545Z,100267.89
2023-04-18T18:38:31.062Z,100268.34
2023-04-18T18:40:57.577Z,100269.33
2023-04-18T18:43:24.339Z,100272.09
2023-04-18T18:45:50.829Z,100273.20
2023-04-18T18:48:17.454Z,100276.09
2023-04-18T18:50:43.909Z,100277.59
2023-04-18T18:53:10.370Z,100282.27
2023-04-18T18:55:36.832Z,100283.73
2023-04-18T18:58:03.347Z,100288.52
2023-04-18T19:00:29.826Z,100300.67
2023-04-18T19:02:56.384Z,100306.14
2023-04-18T19:05:23.148Z,100315.78
2023-04-18T19:07:49.724Z,100320.48
2023-04-18T19:10:16.371Z,100318.14
2023-04-18T19:12:43.101Z,100319.15
2023-04-18T19:15:11.214Z,100318.05
2023-04-18T19:17:37.726Z,100324.91
2023-04-18T19:20:04.643Z,100318.91
2023-04-18T19:22:31.168Z,100321.37
2023-04-18T19:24:57.650Z,100323.46
2023-04-18T19:27:24.156Z,100320.67
2023-04-18T19:29:50.631Z,100325.27
2023-04-18T19:32:17.095Z,100319.98
2023-04-18T19:34:43.618Z,100324.07
2023-04-18T19:37:10.122Z,100325.33
2023-04-18T19:39:36.584Z,100327.83
2023-04-18T19:42:03.487Z,100330.86
2023-04-18T19:44:29.970Z,100328.77
2023-04-18T19:46:56.629Z,100331.08
2023-04-18T19:49:23.114Z,100332.48
2023-04-18T19:51:49.578Z,100331.64
2023-04-18T19:54:16.307Z,100337.49
2023-04-18T19:56:42.790Z,100334.87
2023-04-18T19:59:09.255Z,100339.45
2023-04-18T20:01:35.772Z,100338.39
2023-04-18T20:04:02.525Z,100341.73
2023-04-18T20:06:29.430Z,100341.92
2023-04-18T20:08:55.919Z,100344.77
2023-04-18T20:11:22.718Z,100342.86
2023-04-18T20:13:49.291Z,100344.61
2023-04-18T20:16:15.974Z,100347.96
2023-04-18T20:18:42.450Z,100346.23
2023-04-18T20:21:09.992Z,100348.38
2023-04-18T20:23:37.307Z,100350.83
2023-04-18T20:26:04.227Z,100354.16
2023-04-18T20:28:31.622Z,100355.96
2023-04-18T20:30:58.254Z,100362.30
2023-04-18T20:33:24.769Z,100371.48
2023-04-18T20:35:51.247Z,100370.08
2023-04-18T20:38:17.689Z,100363.92
2023-04-18T20:40:44.172Z,100353.75
2023-04-18T20:43:11.134Z,100346.20
2023-04-18T20:45:37.615Z,100338.84
2023-04-18T20:48:04.429Z,100343.45
2023-04-18T20:50:30.897Z,100341.00
2023-04-18T20:52:58.641Z,100341.35
2023-04-18T20:55:25.135Z,100339.06
2023-04-18T20:57:51.610Z,100336.08
2023-04-18T21:00:18.463Z,100339.08
2023-04-18T21:02:45.262Z,100338.04
2023-04-18T21:05:11.933Z,100337.88
2023-04-18T21:07:38.451Z,100338.79
2023-04-18T21:10:05.285Z,100334.96
2023-04-18T21:12:31.757Z,100335.86
2023-04-18T21:14:58.226Z,100330.63
2023-04-18T21:17:24.790Z,100332.92
2023-04-18T21:19:51.894Z,100333.10
2023-04-18T21:22:18.469Z,100333.27
2023-04-18T21:24:45.008Z,100333.80
2023-04-18T21:27:11.465Z,100334.67
2023-04-18T21:29:37.944Z,100334.15
2023-04-18T21:32:04.649Z,100332.20
2023-04-18T21:34:31.137Z,100331.15
2023-04-18T21:36:57.639Z,100329.02
2023-04-18T21:39:24.200Z,100327.08
2023-04-18T21:41:50.662Z,100327.81
2023-04-18T21:44:17.274Z,100324.88
2023-04-18T21:46:43.807Z,100323.73
2023-04-18T21:49:10.348Z,100322.45
2023-04-18T21:51:36.869Z,100326.23
2023-04-18T21:54:04.070Z,100320.31
2023-04-18T21:56:30.542Z,100320.54
2023-04-18T21:58:57.024Z,100322.51
2023-04-18T22:01:23.575Z,100321.31
2023-04-18T22:03:50.426Z,100321.91
2023-04-18T22:06:17.013Z,100318.95
2023-04-18T22:08:43.459Z,100317.89
2023-04-18T22:11:10.004Z,100314.36
2023-04-18T22:13:36.471Z,100313.81
2023-04-18T22:16:03.688Z,100311.70
2023-04-18T22:18:32.780Z,100314.86
2023-04-18T22:21:00.176Z,100312.05
2023-04-18T22:23:27.164Z,100313.29
2023-04-18T22:25:53.692Z,100305.90
2023-04-18T22:28:20.396Z,100308.75
2023-04-18T22:30:46.877Z,100306.83
2023-04-18T22:33:13.399Z,100302.95
2023-04-18T22:35:39.855Z,100302.46
2023-04-18T22:38:06.389Z,100302.48
2023-04-18T22:40:32.898Z,100296.71
2023-04-18T22:42:59.352Z,100295.17
2023-04-18T22:45:25.856Z,100292.61
2023-04-18T22:47:52.360Z,100289.17
2023-04-18T22:50:18.996Z,100287.84
2023-04-18T22:52:45.461Z,100285.45
2023-04-18T22:55:12.021Z,100280.95
2023-04-18T22:57:38.579Z,100276.96
2023-04-18T23:00:05.628Z,100277.17
2023-04-18T23:02:33.020Z,100273.34
2023-04-18T23:04:59.658Z,100268.61
2023-04-18T23:07:26.236Z,100266.70
2023-04-18T23:09:52.697Z,100263.92
2023-04-18T23:12:19.461Z,100261.80
2023-04-18T23:14:45.925Z,100263.23
2023-04-18T23:17:12.386Z,100261.83
2023-04-18T23:19:38.957Z,100261.85
2023-04-18T23:22:05.563Z,100261.86
2023-04-18T23:24:32.088Z,100256.56
2023-04-18T23:26:58.625Z,100250.77
2023-04-18T23:29:25.122Z,100253.95
2023-04-18T23:31:51.712Z,100247.98
2023-04-18T23:34:18.303Z,100245.70
2023-04-18T23:36:44.783Z,100243.44
2023-04-18T23:39:11.242Z,100237.66
2023-04-18T23:41:37.744Z,100235.23
2023-04-18T23:44:04.374Z,100233.83
2023-04-18T23:46:30.888Z,100228.57
2023-04-18T23:48:57.392Z,100228.55
2023-04-18T23:51:23.855Z,100228.22
2023-04-18T23:53:50.415Z,100222.25
2023-04-18T23:56:16.906Z,100223.47
2023-04-18T23:58:43.384Z,100221.52
